Time;durP1;ratioP1;P1;durP2;ratioP2;P2;SDS_P1;SDS_P2;PMS_P1;PMS_P2;Temp;Humidity;BMP_temperature;BMP_pressure;BME280_temperature;BME280_humidity;BME280_pressure;Samples;Min_cycle;Max_cycle;Signal;HPM_P1;HPM_P2
2023/04/18 00:00:09;;;;;;;13.57;11.25;;;7.10;99.90;;;;;;7379833;19;20014;-66
2023/04/18 00:02:38;;;;;;;16.67;11.02;;;7.00;99.90;;;;;;7379620;19;20740;-65
2023/04/18 00:05:08;;;;;;;15.43;12.32;;;7.00;99.90;;;;;;7375040;19;20650;-65
2023/04/18 00:07:34;;;;;;;13.60;10.90;;;6.90;99.90;;;;;;7378992;19;20026;-61
2023/04/18 00:10:02;;;;;;;15.50;12.27;;;6.90;99.90;;;;;;7378347;19;20025;-61
2023/04/18 00:12:33;;;;;;;15.25;11.45;;;6.90;99.90;;;;;;7380708;19;20018;-66
2023/04/18 00:15:01;;;;;;;17.25;11.60;;;6.90;99.90;;;;;;7377841;19;20078;-61
2023/04/18 00:17:44;;;;;;;15.43;11.73;;;6.90;99.90;;;;;;7378513;19;20041;-61
2023/04/18 00:20:11;;;;;;;16.45;11.85;;;6.90;99.90;;;;;;7377701;19;20078;-61
2023/04/18 00:22:42;;;;;;;14.25;11.68;;;6.80;99.90;;;;;;7378787;19;20047;-61
2023/04/18 00:25:09;;;;;;;13.23;11.63;;;6.80;99.90;;;;;;7378091;19;20019;-65
2023/04/18 00:27:37;;;;;;;13.90;10.82;;;6.80;99.90;;;;;;7380315;19;20502;-61
2023/04/18 00:30:07;;;;;;;17.83;12.35;;;6.80;99.90;;;;;;7374775;19;20482;-66
2023/04/18 00:32:37;;;;;;;15.70;12.68;;;6.70;99.90;;;;;;7380612;19;20772;-66
2023/04/18 00:35:04;;;;;;;14.52;12.15;;;6.70;99.90;;;;;;7380023;19;20022;-61
2023/04/18 00:37:30;;;;;;;15.27;11.30;;;6.70;99.90;;;;;;7373898;19;20036;-65
2023/04/18 00:39:57;;;;;;;15.02;11.98;;;6.70;99.90;;;;;;7373214;19;20043;-61
2023/04/18 00:42:24;;;;;;;14.93;11.32;;;6.60;99.90;;;;;;7372928;19;20018;-65
2023/04/18 00:44:51;;;;;;;18.15;12.77;;;6.60;99.90;;;;;;7378168;19;20026;-61
2023/04/18 00:47:17;;;;;;;16.23;12.05;;;6.60;99.90;;;;;;7379969;19;20018;-63
2023/04/18 00:49:45;;;;;;;13.43;11.98;;;6.60;99.90;;;;;;7374733;19;20014;-61
2023/04/18 00:52:11;;;;;;;18.08;12.27;;;6.50;99.90;;;;;;7378119;19;20111;-61
2023/04/18 00:54:42;;;;;;;14.00;11.95;;;6.60;99.90;;;;;;7375261;19;20007;-61
2023/04/18 00:57:09;;;;;;;15.88;11.88;;;6.50;99.90;;;;;;7377445;19;20014;-61
2023/04/18 00:59:36;;;;;;;14.55;11.85;;;6.50;99.90;;;;;;7375637;19;20054;-65
2023/04/18 01:02:03;;;;;;;13.30;11.85;;;6.50;99.90;;;;;;7374716;19;20476;-61
2023/04/18 01:04:33;;;;;;;16.75;12.68;;;6.50;99.90;;;;;;7373154;19;20021;-65
2023/04/18 01:07:01;;;;;;;15.52;12.25;;;6.50;99.90;;;;;;7377842;19;20127;-65
2023/04/18 01:09:29;;;;;;;13.45;11.05;;;6.40;99.90;;;;;;7380906;19;20751;-65
2023/04/18 01:11:55;;;;;;;16.08;12.30;;;6.40;99.90;;;;;;7380450;19;20498;-65
2023/04/18 01:14:22;;;;;;;12.65;11.10;;;6.40;99.90;;;;;;7379055;19;20106;-65
2023/04/18 01:16:48;;;;;;;15.70;11.27;;;6.40;99.90;;;;;;7374519;19;20797;-64
2023/04/18 01:19:18;;;;;;;17.15;12.35;;;6.40;99.90;;;;;;7370492;19;20056;-65
2023/04/18 01:21:44;;;;;;;12.85;11.27;;;6.40;99.90;;;;;;7375459;19;20018;-65
2023/04/18 01:24:15;;;;;;;17.15;12.85;;;6.40;99.90;;;;;;7371069;19;20023;-65
2023/04/18 01:26:42;;;;;;;14.50;11.73;;;6.30;99.90;;;;;;7372464;19;20087;-61
2023/04/18 01:29:09;;;;;;;16.10;12.23;;;6.30;99.90;;;;;;7373824;19;20026;-61
2023/04/18 01:31:37;;;;;;;16.73;13.27;;;6.20;99.90;;;;;;7372435;19;20052;-61
2023/04/18 01:34:04;;;;;;;14.95;12.45;;;6.20;99.90;;;;;;7373037;19;20026;-61
2023/04/18 01:36:31;;;;;;;15.25;11.90;;;6.20;99.90;;;;;;7368877;19;20031;-60
2023/04/18 01:38:58;;;;;;;13.75;11.57;;;6.20;99.90;;;;;;7371108;19;20090;-61
2023/04/18 01:41:28;;;;;;;14.10;11.95;;;6.10;99.90;;;;;;7374091;19;20023;-61
2023/04/18 01:43:54;;;;;;;14.02;12.20;;;6.10;99.90;;;;;;7367031;19;20529;-60
2023/04/18 01:46:20;;;;;;;14.32;12.80;;;6.10;99.90;;;;;;7375214;19;20094;-61
2023/04/18 01:48:47;;;;;;;15.00;12.05;;;6.20;99.90;;;;;;7374031;19;20022;-61
2023/04/18 01:51:13;;;;;;;14.50;12.88;;;6.10;99.90;;;;;;7372074;19;20648;-61
2023/04/18 01:53:40;;;;;;;13.98;11.88;;;6.20;99.90;;;;;;7372884;19;20054;-61
2023/04/18 01:56:09;;;;;;;16.05;12.45;;;6.20;99.90;;;;;;7373090;19;20018;-61
2023/04/18 01:58:35;;;;;;;15.93;12.48;;;6.20;99.90;;;;;;7372415;19;20025;-61
2023/04/18 02:01:02;;;;;;;14.43;12.07;;;6.20;99.90;;;;;;7375538;19;20619;-65
2023/04/18 02:03:29;;;;;;;14.52;12.15;;;6.20;99.90;;;;;;7367276;19;20039;-65
2023/04/18 02:05:55;;;;;;;16.02;12.00;;;6.30;99.90;;;;;;7362654;19;20506;-65
2023/04/18 02:08:22;;;;;;;17.25;12.48;;;6.30;99.90;;;;;;7363642;19;20010;-65
2023/04/18 02:10:48;;;;;;;13.43;11.90;;;6.30;99.90;;;;;;7368103;19;20113;-66
2023/04/18 02:13:15;;;;;;;16.17;12.80;;;6.40;99.90;;;;;;7373061;19;20026;-65
2023/04/18 02:15:45;;;;;;;15.35;12.25;;;6.40;99.90;;;;;;7372635;19;20669;-65
2023/04/18 02:18:16;;;;;;;13.82;12.07;;;6.40;99.90;;;;;;7373644;19;20018;-65
2023/04/18 02:20:43;;;;;;;14.77;12.95;;;6.40;99.90;;;;;;7370401;19;20018;-65
2023/04/18 02:23:10;;;;;;;17.65;13.20;;;6.40;99.90;;;;;;7375174;19;20763;-66
2023/04/18 02:25:36;;;;;;;14.68;12.52;;;6.40;99.90;;;;;;7370871;19;20039;-65
2023/04/18 02:28:02;;;;;;;14.70;12.73;;;6.50;99.90;;;;;;7370628;19;20034;-61
2023/04/18 02:30:30;;;;;;;16.45;13.88;;;6.50;99.90;;;;;;7369444;19;20438;-62
2023/04/18 02:32:56;;;;;;;17.20;13.43;;;6.50;99.90;;;;;;7370775;19;20019;-61
2023/04/18 02:35:24;;;;;;;16.15;13.80;;;6.50;99.90;;;;;;7372028;19;20014;-61
2023/04/18 02:38:00;;;;;;;16.30;13.95;;;6.50;99.90;;;;;;7366098;19;20014;-61
2023/04/18 02:40:26;;;;;;;19.35;13.63;;;6.50;99.90;;;;;;7367184;19;20051;-61
2023/04/18 02:42:52;;;;;;;15.98;13.25;;;6.60;99.90;;;;;;7368065;19;20018;-61
2023/04/18 02:45:19;;;;;;;17.05;14.68;;;6.60;99.90;;;;;;7368729;19;21193;-61
2023/04/18 02:47:45;;;;;;;16.55;13.43;;;6.60;99.90;;;;;;7364744;19;20022;-61
2023/04/18 02:50:13;;;;;;;15.88;13.90;;;6.60;99.90;;;;;;7367301;19;20018;-65
2023/04/18 02:52:39;;;;;;;16.48;13.85;;;6.60;99.90;;;;;;7370516;19;20864;-66
2023/04/18 02:55:07;;;;;;;16.60;13.88;;;6.70;99.90;;;;;;7373167;19;20302;-66
2023/04/18 02:57:38;;;;;;;19.75;15.30;;;6.60;99.90;;;;;;7372988;19;20056;-66
2023/04/18 03:00:14;;;;;;;17.20;13.90;;;6.60;99.90;;;;;;7371981;19;20024;-62
2023/04/18 03:03:19;;;;;;;17.65;13.82;;;6.50;99.90;;;;;;7364668;19;20577;-62
2023/04/18 03:06:11;;;;;;;19.98;15.68;;;6.50;99.90;;;;;;7375810;19;20058;-66
2023/04/18 03:08:37;;;;;;;17.90;14.55;;;6.50;99.90;;;;;;7384701;19;20018;-66
2023/04/18 03:11:04;;;;;;;17.88;14.60;;;6.40;99.90;;;;;;7383465;19;20785;-66
2023/04/18 03:13:34;;;;;;;18.10;14.27;;;6.40;99.90;;;;;;7380018;19;20037;-65
2023/04/18 03:16:01;;;;;;;16.52;14.68;;;6.40;99.90;;;;;;7382505;19;20022;-66
2023/04/18 03:18:28;;;;;;;17.67;14.40;;;6.40;99.90;;;;;;7385708;19;20023;-66
2023/04/18 03:20:57;;;;;;;18.33;14.05;;;6.40;99.90;;;;;;7383472;19;20756;-66
2023/04/18 03:23:24;;;;;;;17.75;14.07;;;6.30;99.90;;;;;;7385374;19;20502;-66
2023/04/18 03:25:51;;;;;;;16.13;14.43;;;6.30;99.90;;;;;;7376463;19;20112;-65
2023/04/18 03:28:18;;;;;;;18.05;13.80;;;6.30;99.90;;;;;;7383882;19;20916;-66
2023/04/18 03:30:45;;;;;;;21.58;13.52;;;6.30;99.90;;;;;;7377711;19;20074;-66
2023/04/18 03:33:12;;;;;;;16.98;15.15;;;6.30;99.90;;;;;;7376486;19;20040;-66
2023/04/18 03:35:38;;;;;;;15.75;14.05;;;6.30;99.90;;;;;;7383069;19;20018;-66
2023/04/18 03:38:06;;;;;;;16.65;13.55;;;6.30;99.90;;;;;;7385380;19;20014;-66
2023/04/18 03:40:36;;;;;;;18.15;14.00;;;6.30;99.90;;;;;;7384072;19;20100;-61
2023/04/18 03:43:09;;;;;;;16.88;14.48;;;6.40;99.90;;;;;;7384381;19;20023;-61
2023/04/18 03:45:36;;;;;;;17.67;13.93;;;6.40;99.90;;;;;;7383985;19;20029;-66
2023/04/18 03:48:02;;;;;;;16.23;13.50;;;6.40;99.90;;;;;;7382228;19;20019;-66
2023/04/18 03:50:32;;;;;;;16.10;12.95;;;6.50;99.90;;;;;;7386019;19;20019;-66
2023/04/18 03:53:00;;;;;;;15.88;13.23;;;6.50;99.90;;;;;;7384940;19;20108;-66
2023/04/18 03:55:30;;;;;;;16.83;13.60;;;6.60;99.90;;;;;;7387632;19;20014;-66
2023/04/18 03:57:58;;;;;;;17.10;12.48;;;6.60;99.90;;;;;;7386454;19;20086;-66
2023/04/18 04:00:28;;;;;;;14.65;12.77;;;6.60;99.90;;;;;;7383507;19;20561;-66
2023/04/18 04:03:01;;;;;;;18.98;12.75;;;6.60;99.90;;;;;;7381427;19;20048;-62
2023/04/18 04:05:27;;;;;;;17.88;12.90;;;6.70;99.90;;;;;;7379087;19;20029;-62
2023/04/18 04:07:54;;;;;;;14.65;12.25;;;6.70;99.90;;;;;;7383906;19;20018;-62
2023/04/18 04:10:20;;;;;;;17.10;14.10;;;6.70;99.90;;;;;;7383688;19;20478;-62
2023/04/18 04:12:48;;;;;;;15.77;13.07;;;6.70;99.90;;;;;;7383959;19;20025;-66
2023/04/18 04:15:15;;;;;;;20.52;12.48;;;6.70;99.90;;;;;;7384296;19;20026;-66
2023/04/18 04:17:50;;;;;;;17.23;13.55;;;6.70;99.90;;;;;;7374928;19;20014;-66
2023/04/18 04:20:22;;;;;;;18.98;14.10;;;6.70;99.90;;;;;;7377731;19;20035;-66
2023/04/18 04:22:52;;;;;;;17.50;13.88;;;6.80;99.90;;;;;;7374918;19;20026;-62
2023/04/18 04:25:27;;;;;;;16.57;13.37;;;6.70;99.90;;;;;;7365352;19;20026;-62
2023/04/18 04:27:54;;;;;;;19.70;14.35;;;6.80;99.90;;;;;;7369996;19;20025;-62
2023/04/18 04:30:27;;;;;;;16.67;13.57;;;6.80;99.90;;;;;;7371431;19;20025;-65
2023/04/18 04:32:53;;;;;;;18.85;13.75;;;6.80;99.90;;;;;;7376966;19;20022;-65
2023/04/18 04:35:21;;;;;;;16.83;14.30;;;6.80;99.90;;;;;;7371738;19;20022;-63
2023/04/18 04:37:47;;;;;;;16.23;14.13;;;6.80;99.90;;;;;;7375261;19;20408;-63
2023/04/18 04:40:27;;;;;;;17.65;14.32;;;6.80;99.90;;;;;;7367307;19;20018;-63
2023/04/18 04:43:20;;;;;;;17.08;13.90;;;6.80;99.90;;;;;;7374955;19;20951;-60
2023/04/18 04:45:48;;;;;;;18.90;14.93;;;6.80;99.90;;;;;;7356914;19;20026;-60
2023/04/18 04:48:14;;;;;;;18.90;14.80;;;6.80;99.90;;;;;;7374742;19;20602;-60
2023/04/18 04:50:50;;;;;;;17.13;14.70;;;6.90;99.90;;;;;;7373664;19;20039;-60
2023/04/18 04:53:16;;;;;;;23.20;13.80;;;6.90;99.90;;;;;;7373455;19;20491;-60
2023/04/18 04:55:43;;;;;;;16.35;13.13;;;6.90;99.90;;;;;;7371910;19;20117;-60
2023/04/18 04:58:11;;;;;;;18.25;13.52;;;6.90;99.90;;;;;;7373148;19;20395;-61
2023/04/18 05:01:00;;;;;;;18.75;14.00;;;6.90;99.90;;;;;;7372166;19;20019;-61
2023/04/18 05:03:26;;;;;;;17.98;13.55;;;6.90;99.90;;;;;;7374457;19;20029;-62
2023/04/18 05:05:55;;;;;;;17.63;14.07;;;7.00;99.90;;;;;;7370907;19;20380;-61
2023/04/18 05:08:21;;;;;;;17.08;14.38;;;7.00;99.90;;;;;;7365881;19;20027;-64
2023/04/18 05:10:48;;;;;;;26.00;20.05;;;7.00;99.90;;;;;;7372351;19;20030;-64
2023/04/18 05:13:15;;;;;;;19.05;13.25;;;7.10;99.90;;;;;;7372872;19;20064;-64
2023/04/18 05:15:44;;;;;;;18.70;16.25;;;7.00;99.90;;;;;;7365029;19;20449;-64
2023/04/18 05:18:11;;;;;;;18.67;16.05;;;7.00;99.90;;;;;;7362863;19;20285;-64
2023/04/18 05:20:38;;;;;;;22.42;15.70;;;7.00;99.90;;;;;;7361344;19;20035;-64
2023/04/18 05:23:04;;;;;;;18.92;15.20;;;7.00;99.90;;;;;;7364033;19;20043;-64
2023/04/18 05:25:32;;;;;;;20.42;16.00;;;7.00;99.90;;;;;;7376167;19;20018;-64
2023/04/18 05:28:00;;;;;;;18.33;14.98;;;7.00;99.90;;;;;;7375443;19;20014;-63
2023/04/18 05:30:26;;;;;;;25.13;20.52;;;7.00;99.90;;;;;;7375439;19;20030;-64
2023/04/18 05:32:52;;;;;;;32.20;26.27;;;7.00;99.90;;;;;;7369588;19;20024;-66
2023/04/18 05:35:19;;;;;;;16.38;14.43;;;7.00;99.90;;;;;;7374276;19;20021;-65
2023/04/18 05:37:45;;;;;;;20.45;18.02;;;7.00;99.90;;;;;;7372006;19;20604;-65
2023/04/18 05:40:18;;;;;;;29.10;21.48;;;7.00;99.90;;;;;;7370659;19;20018;-65
2023/04/18 05:42:44;;;;;;;21.48;15.85;;;7.00;99.90;;;;;;7374755;19;20096;-66
2023/04/18 05:45:11;;;;;;;19.50;15.82;;;7.00;99.90;;;;;;7372617;19;20015;-65
2023/04/18 05:47:37;;;;;;;17.83;15.65;;;7.00;99.90;;;;;;7373298;19;20470;-65
2023/04/18 05:50:05;;;;;;;20.33;15.98;;;7.10;99.90;;;;;;7359638;19;20018;-65
2023/04/18 05:52:31;;;;;;;19.85;15.98;;;7.10;99.90;;;;;;7360845;19;20486;-65
2023/04/18 05:54:58;;;;;;;16.42;13.73;;;7.10;99.90;;;;;;7361610;19;20010;-65
2023/04/18 05:57:25;;;;;;;18.60;14.13;;;7.10;99.90;;;;;;7364941;19;20030;-64
2023/04/18 05:59:52;;;;;;;18.05;14.63;;;7.10;99.90;;;;;;7366285;19;20113;-64
2023/04/18 06:02:18;;;;;;;17.33;13.93;;;7.20;99.90;;;;;;7359106;19;20014;-64
2023/04/18 06:04:44;;;;;;;16.42;12.45;;;7.20;99.90;;;;;;7359828;19;20034;-65
2023/04/18 06:07:11;;;;;;;23.52;19.23;;;7.20;99.90;;;;;;7362941;19;20433;-64
2023/04/18 06:09:37;;;;;;;21.75;17.92;;;7.30;99.90;;;;;;7362625;19;20538;-64
2023/04/18 06:12:04;;;;;;;20.17;15.48;;;7.40;99.90;;;;;;7357740;19;20019;-64
2023/04/18 06:14:31;;;;;;;21.48;16.50;;;7.50;99.90;;;;;;7374451;19;20042;-66
2023/04/18 06:16:57;;;;;;;16.30;14.52;;;7.50;99.90;;;;;;7373473;19;20025;-64
2023/04/18 06:19:23;;;;;;;24.50;19.00;;;7.60;99.90;;;;;;7371621;19;20022;-64
2023/04/18 06:21:50;;;;;;;23.00;15.98;;;7.60;99.90;;;;;;7370742;19;20014;-64
2023/04/18 06:24:17;;;;;;;23.27;17.80;;;7.60;99.90;;;;;;7369964;19;20022;-64
2023/04/18 06:26:43;;;;;;;21.15;16.80;;;7.70;99.90;;;;;;7370530;19;20022;-64
2023/04/18 06:29:10;;;;;;;22.00;16.20;;;7.70;99.90;;;;;;7374235;19;20101;-64
2023/04/18 06:31:36;;;;;;;18.63;15.40;;;7.70;99.90;;;;;;7372686;19;20029;-65
2023/04/18 06:34:02;;;;;;;16.95;13.98;;;7.90;99.90;;;;;;7374707;19;20014;-64
2023/04/18 06:36:28;;;;;;;17.48;14.55;;;8.00;99.90;;;;;;7371494;19;20367;-64
2023/04/18 06:38:55;;;;;;;16.60;14.45;;;8.00;99.90;;;;;;7360171;19;20091;-64
2023/04/18 06:41:21;;;;;;;19.48;16.33;;;8.10;99.90;;;;;;7352797;19;20025;-64
2023/04/18 06:43:48;;;;;;;23.30;18.15;;;8.10;99.90;;;;;;7363975;19;20041;-64
2023/04/18 06:46:14;;;;;;;16.88;14.93;;;8.20;99.90;;;;;;7369693;19;20018;-64
2023/04/18 06:48:41;;;;;;;19.67;16.38;;;8.30;99.90;;;;;;7372150;19;20050;-64
2023/04/18 06:51:07;;;;;;;16.80;14.25;;;8.40;99.90;;;;;;7370616;19;20015;-64
2023/04/18 06:53:33;;;;;;;14.63;12.98;;;8.60;99.90;;;;;;7372774;19;20793;-64
2023/04/18 06:55:59;;;;;;;18.25;15.65;;;8.70;99.90;;;;;;7375895;19;20027;-64
2023/04/18 06:58:26;;;;;;;14.98;13.38;;;8.80;99.90;;;;;;7373330;19;20509;-64
2023/04/18 07:00:53;;;;;;;19.80;17.70;;;9.00;99.90;;;;;;7373576;19;20490;-65
2023/04/18 07:03:19;;;;;;;17.90;15.32;;;9.20;99.90;;;;;;7369006;19;20018;-65
2023/04/18 07:05:45;;;;;;;16.30;12.20;;;9.50;99.90;;;;;;7375364;19;20014;-64
2023/04/18 07:08:15;;;;;;;15.35;12.90;;;9.80;99.90;;;;;;7372330;19;20591;-64
2023/04/18 07:10:41;;;;;;;15.77;12.77;;;10.20;99.90;;;;;;7368381;19;20021;-65
2023/04/18 07:13:08;;;;;;;12.80;11.13;;;10.20;99.90;;;;;;7359953;19;20378;-65
2023/04/18 07:15:37;;;;;;;19.40;13.05;;;10.30;99.90;;;;;;7360950;19;20018;-64
2023/04/18 07:18:04;;;;;;;13.73;11.60;;;10.50;99.90;;;;;;7357493;19;20027;-65
2023/04/18 07:20:30;;;;;;;13.70;12.27;;;10.50;99.90;;;;;;7369913;19;20621;-65
2023/04/18 07:22:57;;;;;;;12.85;11.02;;;10.50;99.90;;;;;;7369291;19;20058;-65
2023/04/18 07:25:23;;;;;;;15.48;13.40;;;10.50;99.90;;;;;;7372562;19;20045;-66
2023/04/18 07:27:50;;;;;;;17.58;15.13;;;10.70;99.90;;;;;;7370365;19;20018;-66
2023/04/18 07:30:16;;;;;;;18.77;15.27;;;10.80;99.90;;;;;;7374150;19;20026;-65
2023/04/18 07:32:43;;;;;;;13.30;11.73;;;10.80;99.90;;;;;;7368007;19;20473;-66
2023/04/18 07:35:09;;;;;;;14.75;11.13;;;10.70;99.90;;;;;;7372504;19;20006;-66
2023/04/18 07:37:35;;;;;;;14.02;12.20;;;11.00;99.90;;;;;;7373653;19;20010;-66
2023/04/18 07:40:03;;;;;;;16.00;14.32;;;11.30;99.90;;;;;;7368494;19;20022;-66
2023/04/18 07:42:29;;;;;;;17.15;14.05;;;11.70;99.90;;;;;;7364583;19;20014;-66
2023/04/18 07:44:57;;;;;;;11.93;9.93;;;12.00;99.90;;;;;;7368992;19;20374;-65
2023/04/18 07:47:25;;;;;;;11.95;9.02;;;12.00;99.90;;;;;;7374267;19;20026;-66
2023/04/18 07:49:52;;;;;;;9.10;8.18;;;12.50;99.90;;;;;;7371896;19;20518;-65
2023/04/18 07:52:18;;;;;;;11.93;9.13;;;12.90;99.90;;;;;;7364444;19;20850;-65
2023/04/18 07:54:44;;;;;;;21.77;17.92;;;13.10;99.90;;;;;;7371058;19;20010;-66
2023/04/18 07:57:11;;;;;;;14.82;13.20;;;13.00;99.90;;;;;;7368398;19;20018;-66
2023/04/18 07:59:37;;;;;;;15.75;14.13;;;12.80;99.90;;;;;;7368695;19;20027;-66
2023/04/18 08:02:04;;;;;;;12.10;10.25;;;13.00;99.90;;;;;;7374862;19;20018;-66
2023/04/18 08:04:30;;;;;;;14.13;11.95;;;13.20;99.90;;;;;;7377642;19;20019;-66
2023/04/18 08:06:57;;;;;;;13.75;10.32;;;13.30;98.20;;;;;;7374805;19;20026;-66
2023/04/18 08:09:23;;;;;;;17.30;14.55;;;13.50;99.90;;;;;;7377749;19;20421;-65
2023/04/18 08:11:50;;;;;;;16.60;13.07;;;13.90;99.90;;;;;;7377298;19;20022;-65
2023/04/18 08:14:16;;;;;;;11.02;8.68;;;14.00;98.90;;;;;;7379300;19;20654;-64
2023/04/18 08:16:42;;;;;;;13.02;10.23;;;13.90;92.30;;;;;;7375991;19;20021;-65
2023/04/18 08:19:09;;;;;;;12.82;10.25;;;13.70;91.70;;;;;;7376298;19;20025;-65
2023/04/18 08:21:35;;;;;;;12.07;10.77;;;13.10;95.10;;;;;;7381795;19;20022;-65
2023/04/18 08:24:01;;;;;;;15.25;11.77;;;12.50;99.90;;;;;;7376959;19;20018;-63
2023/04/18 08:26:27;;;;;;;12.73;11.40;;;12.30;99.90;;;;;;7369875;19;20515;-63
2023/04/18 08:28:54;;;;;;;13.55;11.75;;;12.20;99.90;;;;;;7372452;19;20038;-63
2023/04/18 08:31:20;;;;;;;14.45;10.02;;;12.00;99.90;;;;;;7374709;19;20030;-63
2023/04/18 08:33:47;;;;;;;11.55;10.32;;;11.90;99.90;;;;;;7373273;19;20102;-65
2023/04/18 08:36:13;;;;;;;14.80;11.38;;;11.80;99.90;;;;;;7376528;19;20015;-65
2023/04/18 08:38:40;;;;;;;15.32;11.75;;;11.70;99.90;;;;;;7370354;19;20078;-64
2023/04/18 08:41:07;;;;;;;13.07;11.77;;;11.50;99.90;;;;;;7371209;19;20075;-63
2023/04/18 08:43:33;;;;;;;13.27;11.20;;;11.40;99.90;;;;;;7375701;19;20019;-63
2023/04/18 08:46:00;;;;;;;14.77;11.98;;;11.30;99.90;;;;;;7374709;19;20647;-64
2023/04/18 08:48:27;;;;;;;14.35;12.48;;;11.20;99.90;;;;;;7374865;19;20022;-64
2023/04/18 08:50:57;;;;;;;13.57;12.13;;;10.90;99.90;;;;;;7372718;19;20026;-63
2023/04/18 08:53:25;;;;;;;14.93;11.80;;;10.90;99.90;;;;;;7375313;19;20015;-63
2023/04/18 08:55:59;;;;;;;12.68;9.88;;;10.90;99.90;;;;;;7375561;19;20018;-65
2023/04/18 08:58:26;;;;;;;17.05;14.60;;;10.90;99.90;;;;;;7375335;19;20358;-63
2023/04/18 09:00:54;;;;;;;14.27;10.15;;;10.90;99.90;;;;;;7370981;19;20025;-65
2023/04/18 09:03:38;;;;;;;15.48;13.82;;;11.10;99.90;;;;;;7371599;19;20014;-65
2023/04/18 09:06:13;;;;;;;14.07;11.85;;;11.20;99.90;;;;;;7370239;19;20397;-65
2023/04/18 09:08:53;;;;;;;15.50;13.10;;;11.20;99.90;;;;;;7373579;19;20014;-64
2023/04/18 09:11:30;;;;;;;12.73;10.77;;;11.40;99.90;;;;;;7371526;19;20014;-63
2023/04/18 09:14:01;;;;;;;13.55;11.93;;;11.60;99.90;;;;;;7374852;19;20588;-63
2023/04/18 09:16:28;;;;;;;12.35;10.52;;;11.70;99.90;;;;;;7369520;19;20018;-63
2023/04/18 09:19:17;;;;;;;18.05;15.00;;;11.80;99.90;;;;;;7376143;19;20038;-64
2023/04/18 09:21:46;;;;;;;15.82;11.35;;;12.20;99.90;;;;;;7376126;19;20431;-63
2023/04/18 09:24:22;;;;;;;12.68;11.10;;;12.50;99.90;;;;;;7371626;19;20051;-63
2023/04/18 09:26:52;;;;;;;12.68;10.68;;;12.70;99.90;;;;;;7370683;19;20364;-63
2023/04/18 09:29:22;;;;;;;15.45;12.52;;;12.80;99.90;;;;;;7373483;19;20882;-63
2023/04/18 09:32:06;;;;;;;13.80;11.85;;;12.90;99.90;;;;;;7376440;19;20024;-65
2023/04/18 09:34:33;;;;;;;14.70;13.05;;;13.00;99.90;;;;;;7375015;19;20778;-65
2023/04/18 09:37:10;;;;;;;11.52;9.60;;;13.00;99.90;;;;;;7372973;19;20022;-65
2023/04/18 09:39:42;;;;;;;13.82;11.23;;;12.90;99.90;;;;;;7372688;19;20023;-63
2023/04/18 09:42:12;;;;;;;;;;;13.00;99.90;;;;;;7369837;19;21468;-64
2023/04/18 09:45:01;;;;;;;10.05;8.60;;;13.00;99.90;;;;;;7369249;19;19934;-66
2023/04/18 09:47:27;;;;;;;12.55;8.75;;;12.90;99.90;;;;;;7369990;19;20478;-65
2023/04/18 09:49:54;;;;;;;14.13;12.63;;;13.20;99.90;;;;;;7372250;19;20526;-65
2023/04/18 09:52:23;;;;;;;9.77;8.10;;;13.30;99.90;;;;;;7373566;19;20315;-64
2023/04/18 09:54:57;;;;;;;11.90;9.60;;;13.50;99.90;;;;;;7370270;19;20497;-64
2023/04/18 09:57:27;;;;;;;13.65;12.00;;;13.90;99.90;;;;;;7367082;19;20029;-64
2023/04/18 10:00:46;;;;;;;11.20;9.80;;;14.60;99.90;;;;;;7368234;19;20018;-63
2023/04/18 10:03:21;;;;;;;11.50;10.00;;;15.00;97.80;;;;;;7368065;19;20753;-64
2023/04/18 10:05:49;;;;;;;11.75;9.82;;;15.70;91.40;;;;;;7365519;19;20038;-65
2023/04/18 10:08:15;;;;;;;10.77;9.65;;;16.30;87.00;;;;;;7369755;19;20022;-65
2023/04/18 10:10:42;;;;;;;11.48;9.95;;;16.60;79.20;;;;;;7369209;19;20019;-65
2023/04/18 10:13:12;;;;;;;13.13;11.77;;;16.50;72.00;;;;;;7372017;19;20065;-65
2023/04/18 10:15:38;;;;;;;14.98;13.35;;;16.80;75.00;;;;;;7362592;19;20119;-66
2023/04/18 10:18:12;;;;;;;11.00;9.93;;;17.00;72.80;;;;;;7366433;19;20085;-65
2023/04/18 10:20:40;;;;;;;12.73;11.30;;;17.10;66.50;;;;;;7371634;19;20014;-65
2023/04/18 10:23:34;;;;;;;11.68;9.73;;;16.80;67.20;;;;;;7367628;19;20235;-65
2023/04/18 10:26:05;;;;;;;12.55;11.27;;;16.80;66.70;;;;;;7368591;19;20112;-65
2023/04/18 10:28:53;;;;;;;11.70;10.57;;;17.10;66.10;;;;;;7368734;19;20049;-65
2023/04/18 10:31:21;;;;;;;12.93;11.55;;;17.30;65.40;;;;;;7369835;19;20690;-65
2023/04/18 10:33:48;;;;;;;13.68;12.30;;;18.00;64.90;;;;;;7367675;19;20022;-65
2023/04/18 10:36:18;;;;;;;12.05;10.65;;;17.90;64.90;;;;;;7372090;19;20014;-66
2023/04/18 10:39:02;;;;;;;10.05;9.02;;;17.90;63.20;;;;;;7373527;19;20126;-65
2023/04/18 10:41:30;;;;;;;12.38;9.75;;;17.70;61.60;;;;;;7371112;19;20019;-65
2023/04/18 10:44:06;;;;;;;13.93;12.05;;;17.00;63.50;;;;;;7368639;19;20018;-65
2023/04/18 10:46:32;;;;;;;10.48;8.85;;;17.50;64.30;;;;;;7365074;19;20018;-65
2023/04/18 10:49:23;;;;;;;9.90;8.07;;;17.90;62.20;;;;;;7370425;19;20051;-66
2023/04/18 10:51:51;;;;;;;14.03;9.87;;;17.80;59.30;;;;;;7366592;19;20676;-65
2023/04/18 10:54:27;;;;;;;9.65;8.63;;;18.10;61.80;;;;;;7369538;19;20299;-65
2023/04/18 10:56:58;;;;;;;10.15;8.73;;;17.70;60.10;;;;;;7369237;19;20026;-66
2023/04/18 10:59:25;;;;;;;8.80;7.85;;;17.60;60.60;;;;;;7371527;19;20467;-65
2023/04/18 11:02:21;;;;;;;11.45;9.40;;;18.70;60.10;;;;;;7365928;19;20022;-65
2023/04/18 11:04:50;;;;;;;9.15;7.72;;;19.00;56.70;;;;;;7365464;19;20014;-65
2023/04/18 11:07:17;;;;;;;10.63;8.40;;;18.70;58.50;;;;;;7369813;19;20033;-65
2023/04/18 11:09:54;;;;;;;8.77;7.88;;;18.80;56.90;;;;;;7369827;19;20015;-64
2023/04/18 11:12:20;;;;;;;9.43;8.23;;;19.30;56.30;;;;;;7367919;19;20018;-64
2023/04/18 11:14:53;;;;;;;8.82;7.82;;;19.70;56.10;;;;;;7368147;19;20089;-64
2023/04/18 11:17:34;;;;;;;8.80;6.90;;;19.90;54.20;;;;;;7368939;19;20126;-64
2023/04/18 11:20:08;;;;;;;8.80;7.55;;;19.40;52.20;;;;;;7369930;19;20022;-66
2023/04/18 11:22:47;;;;;;;7.22;6.13;;;19.50;53.70;;;;;;7370585;19;20018;-64
2023/04/18 11:25:17;;;;;;;7.95;7.20;;;19.90;53.90;;;;;;7362385;19;20022;-64
2023/04/18 11:27:46;;;;;;;8.85;6.53;;;20.00;52.30;;;;;;7370399;19;20050;-64
2023/04/18 11:30:14;;;;;;;8.15;7.20;;;19.60;52.60;;;;;;7370184;19;20022;-64
2023/04/18 11:32:41;;;;;;;10.10;7.97;;;19.00;54.90;;;;;;7369006;19;20015;-64
2023/04/18 11:35:09;;;;;;;11.15;7.95;;;17.70;55.30;;;;;;7370857;19;20014;-64
2023/04/18 11:37:39;;;;;;;9.60;8.70;;;17.60;56.30;;;;;;7374082;19;20030;-64
2023/04/18 11:40:08;;;;;;;9.37;7.77;;;18.00;57.00;;;;;;7376034;19;20437;-62
2023/04/18 11:42:37;;;;;;;13.38;8.57;;;18.80;56.30;;;;;;7375791;19;20025;-63
2023/04/18 11:45:09;;;;;;;10.15;8.32;;;19.10;54.70;;;;;;7374167;19;20029;-63
2023/04/18 11:47:35;;;;;;;13.23;10.40;;;18.80;53.00;;;;;;7375267;19;20046;-63
2023/04/18 11:50:04;;;;;;;15.68;13.25;;;19.20;53.40;;;;;;7374187;19;20014;-65
2023/04/18 11:52:32;;;;;;;11.85;10.10;;;19.50;53.40;;;;;;7379438;19;20106;-65
2023/04/18 11:55:28;;;;;;;8.98;7.55;;;19.30;52.50;;;;;;7373747;19;20054;-66
2023/04/18 11:57:55;;;;;;;11.13;8.98;;;19.20;51.10;;;;;;7375998;19;20018;-66
2023/04/18 12:00:36;;;;;;;13.68;10.82;;;19.70;51.70;;;;;;7374783;19;20051;-65
2023/04/18 12:03:04;;;;;;;9.73;8.52;;;20.10;51.70;;;;;;7376828;19;20029;-65
2023/04/18 12:05:32;;;;;;;11.68;8.38;;;20.40;51.90;;;;;;7374948;19;20025;-65
2023/04/18 12:08:12;;;;;;;9.63;8.52;;;19.90;51.20;;;;;;7374115;19;20020;-65
2023/04/18 12:10:50;;;;;;;11.60;9.43;;;19.80;50.80;;;;;;7372010;19;20052;-66
2023/04/18 12:13:17;;;;;;;13.38;12.02;;;19.90;51.90;;;;;;7372188;19;20085;-66
2023/04/18 12:15:45;;;;;;;10.73;9.63;;;19.80;51.50;;;;;;7365990;19;20513;-66
2023/04/18 12:18:13;;;;;;;14.05;12.57;;;20.20;50.70;;;;;;7373429;19;20022;-66
2023/04/18 12:20:50;;;;;;;14.85;10.80;;;20.20;51.00;;;;;;7371972;19;20014;-64
2023/04/18 12:23:32;;;;;;;12.25;10.73;;;20.50;50.50;;;;;;7375573;19;20014;-64
2023/04/18 12:26:03;;;;;;;10.48;9.15;;;20.60;49.90;;;;;;7373169;19;20017;-66
2023/04/18 12:28:30;;;;;;;15.40;13.17;;;20.60;50.40;;;;;;7372192;19;21015;-66
2023/04/18 12:30:56;;;;;;;17.60;15.82;;;20.40;50.00;;;;;;7369813;19;20018;-64
2023/04/18 12:33:23;;;;;;;15.25;13.65;;;20.70;50.10;;;;;;7373307;19;20027;-66
2023/04/18 12:35:51;;;;;;;13.52;11.45;;;20.80;49.80;;;;;;7370655;19;20248;-65
2023/04/18 12:38:22;;;;;;;15.50;13.82;;;21.10;49.70;;;;;;7371698;19;21390;-65
2023/04/18 12:40:50;;;;;;;11.80;9.07;;;21.10;49.40;;;;;;7373442;19;20358;-65
2023/04/18 12:43:19;;;;;;;15.40;12.75;;;21.20;47.70;;;;;;7368236;19;20026;-65
2023/04/18 12:45:48;;;;;;;13.85;10.45;;;21.40;48.50;;;;;;7376206;19;20511;-65